sensor_id;sensor_type;location;lat;lon;timestamp;pressure;altitude;pressure_sealevel;temperature;humidity
4586;BME280;2305;50.118;8.952;2023-11-21T00:00:53;99902.84;;;10.60;100.00
4586;BME280;2305;50.118;8.952;2023-11-21T00:03:23;99902.44;;;10.64;100.00
4586;BME280;2305;50.118;8.952;2023-11-21T00:05:51;99905.66;;;10.68;100.00
4586;BME280;2305;50.118;8.952;2023-11-21T00:08:21;99905.91;;;10.74;100.00
4586;BME280;2305;50.118;8.952;2023-11-21T00:10:49;99908.41;;;10.66;100.00
4586;BME280;2305;50.118;8.952;2023-11-21T00:13:18;99906.75;;;10.65;100.00
4586;BME280;2305;50.118;8.952;2023-11-21T00:15:46;99909.09;;;10.59;100.00
4586;BME280;2305;50.118;8.952;2023-11-21T00:18:17;99906.59;;;10.57;100.00
4586;BME280;2305;50.118;8.952;2023-11-21T00:20:46;99907.97;;;10.61;100.00
4586;BME280;2305;50.118;8.952;2023-11-21T00:23:14;99913.25;;;10.61;100.00
4586;BME280;2305;50.118;8.952;2023-11-21T00:25:43;99915.47;;;10.56;100.00
4586;BME280;2305;50.118;8.952;2023-11-21T00:28:11;99911.00;;;10.57;100.00
4586;BME280;2305;50.118;8.952;2023-11-21T00:30:40;99904.66;;;10.59;100.00
4586;BME280;2305;50.118;8.952;2023-11-21T00:33:08;99906.59;;;10.57;100.00
4586;BME280;2305;50.118;8.952;2023-11-21T00:35:36;99906.72;;;10.56;100.00
4586;BME280;2305;50.118;8.952;2023-11-21T00:38:05;99914.75;;;10.54;100.00
4586;BME280;2305;50.118;8.952;2023-11-21T00:40:35;99910.44;;;10.53;100.00
4586;BME280;2305;50.118;8.952;2023-11-21T00:43:05;99911.00;;;10.57;100.00
4586;BME280;2305;50.118;8.952;2023-11-21T00:45:33;99908.25;;;10.58;100.00
4586;BME280;2305;50.118;8.952;2023-11-21T00:48:03;99917.13;;;10.57;100.00
4586;BME280;2305;50.118;8.952;2023-11-21T00:50:32;99912.13;;;10.54;100.00
4586;BME280;2305;50.118;8.952;2023-11-21T00:53:00;99909.47;;;10.54;100.00
4586;BME280;2305;50.118;8.952;2023-11-21T00:55:28;99907.56;;;10.56;100.00
4586;BME280;2305;50.118;8.952;2023-11-21T00:57:59;99914.38;;;10.59;100.00
4586;BME280;2305;50.118;8.952;2023-11-21T01:00:31;99911.56;;;10.60;100.00
4586;BME280;2305;50.118;8.952;2023-11-21T01:03:02;99915.88;;;10.61;100.00
4586;BME280;2305;50.118;8.952;2023-11-21T01:05:32;99918.25;;;10.64;100.00
4586;BME280;2305;50.118;8.952;2023-11-21T01:08:01;99925.31;;;10.64;100.00
4586;BME280;2305;50.118;8.952;2023-11-21T01:10:29;99920.19;;;10.62;100.00
4586;BME280;2305;50.118;8.952;2023-11-21T01:12:57;99926.16;;;10.64;100.00
4586;BME280;2305;50.118;8.952;2023-11-21T01:15:25;99924.34;;;10.65;100.00
4586;BME280;2305;50.118;8.952;2023-11-21T01:17:57;99924.34;;;10.65;100.00
4586;BME280;2305;50.118;8.952;2023-11-21T01:20:25;99928.38;;;10.69;100.00
4586;BME280;2305;50.118;8.952;2023-11-21T01:22:54;99932.97;;;10.67;100.00
4586;BME280;2305;50.118;8.952;2023-11-21T01:25:22;99937.25;;;10.68;100.00
4586;BME280;2305;50.118;8.952;2023-11-21T01:27:50;99937.66;;;10.63;100.00
4586;BME280;2305;50.118;8.952;2023-11-21T01:30:18;99940.44;;;10.62;100.00
4586;BME280;2305;50.118;8.952;2023-11-21T01:32:47;99933.38;;;10.62;100.00
4586;BME280;2305;50.118;8.952;2023-11-21T01:35:19;99943.47;;;10.57;100.00
4586;BME280;2305;50.118;8.952;2023-11-21T01:37:47;99947.09;;;10.56;100.00
4586;BME280;2305;50.118;8.952;2023-11-21T01:40:17;99939.03;;;10.58;100.00
4586;BME280;2305;50.118;8.952;2023-11-21T01:42:45;99944.69;;;10.53;100.00
4586;BME280;2305;50.118;8.952;2023-11-21T01:45:14;99940.41;;;10.52;100.00
4586;BME280;2305;50.118;8.952;2023-11-21T01:47:44;99929.88;;;10.52;100.00
4586;BME280;2305;50.118;8.952;2023-11-21T01:50:15;99927.66;;;10.57;100.00
4586;BME280;2305;50.118;8.952;2023-11-21T01:52:46;99934.88;;;10.55;100.00
4586;BME280;2305;50.118;8.952;2023-11-21T01:55:16;99935.41;;;10.49;100.00
4586;BME280;2305;50.118;8.952;2023-11-21T01:57:57;99936.78;;;10.53;100.00
4586;BME280;2305;50.118;8.952;2023-11-21T02:00:26;99939.59;;;10.52;100.00
4586;BME280;2305;50.118;8.952;2023-11-21T02:02:56;99952.34;;;10.56;100.00
4586;BME280;2305;50.118;8.952;2023-11-21T02:05:27;99946.22;;;10.56;100.00
4586;BME280;2305;50.118;8.952;2023-11-21T02:07:59;99951.38;;;10.57;100.00
4586;BME280;2305;50.118;8.952;2023-11-21T02:10:28;99948.75;;;10.57;100.00
4586;BME280;2305;50.118;8.952;2023-11-21T02:12:58;99954.81;;;10.58;100.00
4586;BME280;2305;50.118;8.952;2023-11-21T02:15:29;99956.66;;;10.57;100.00
4586;BME280;2305;50.118;8.952;2023-11-21T02:17:57;99963.56;;;10.58;100.00
4586;BME280;2305;50.118;8.952;2023-11-21T02:20:27;99960.81;;;10.60;100.00
4586;BME280;2305;50.118;8.952;2023-11-21T02:22:58;99950.13;;;10.61;100.00
4586;BME280;2305;50.118;8.952;2023-11-21T02:25:28;99962.34;;;10.62;100.00
4586;BME280;2305;50.118;8.952;2023-11-21T02:27:59;99957.91;;;10.63;100.00
4586;BME280;2305;50.118;8.952;2023-11-21T02:30:30;99963.28;;;10.61;100.00
4586;BME280;2305;50.118;8.952;2023-11-21T02:32:59;99961.50;;;10.62;100.00
4586;BME280;2305;50.118;8.952;2023-11-21T02:35:30;99966.78;;;10.62;100.00
4586;BME280;2305;50.118;8.952;2023-11-21T02:38:00;99967.75;;;10.61;100.00
4586;BME280;2305;50.118;8.952;2023-11-21T02:40:31;99966.78;;;10.62;100.00
4586;BME280;2305;50.118;8.952;2023-11-21T02:42:59;99967.75;;;10.61;100.00
4586;BME280;2305;50.118;8.952;2023-11-21T02:45:27;99961.38;;;10.63;100.00
4586;BME280;2305;50.118;8.952;2023-11-21T02:47:58;99960.66;;;10.61;100.00
4586;BME280;2305;50.118;8.952;2023-11-21T02:50:26;99959.72;;;10.62;100.00
4586;BME280;2305;50.118;8.952;2023-11-21T02:52:54;99950.97;;;10.62;100.00
4586;BME280;2305;50.118;8.952;2023-11-21T02:55:25;99948.47;;;10.60;100.00
4586;BME280;2305;50.118;8.952;2023-11-21T02:57:54;99947.66;;;10.60;100.00
4586;BME280;2305;50.118;8.952;2023-11-21T03:00:23;99953.88;;;10.59;100.00
4586;BME280;2305;50.118;8.952;2023-11-21T03:02:54;99946.78;;;10.59;100.00
4586;BME280;2305;50.118;8.952;2023-11-21T03:05:23;99948.47;;;10.60;100.00
4586;BME280;2305;50.118;8.952;2023-11-21T03:07:51;99953.88;;;10.59;100.00
4586;BME280;2305;50.118;8.952;2023-11-21T03:10:19;99957.47;;;10.58;100.00
4586;BME280;2305;50.118;8.952;2023-11-21T03:12:50;99952.34;;;10.56;100.00
4586;BME280;2305;50.118;8.952;2023-11-21T03:15:18;99946.22;;;10.56;100.00
4586;BME280;2305;50.118;8.952;2023-11-21T03:17:46;99957.75;;;10.55;100.00
4586;BME280;2305;50.118;8.952;2023-11-21T03:20:16;99954.09;;;10.46;100.00
4586;BME280;2305;50.118;8.952;2023-11-21T03:22:44;99957.47;;;10.48;100.00
4586;BME280;2305;50.118;8.952;2023-11-21T03:25:13;99957.56;;;10.47;100.00
4586;BME280;2305;50.118;8.952;2023-11-21T03:27:41;99959.66;;;10.43;100.00
4586;BME280;2305;50.118;8.952;2023-11-21T03:30:12;99960.09;;;10.48;100.00
4586;BME280;2305;50.118;8.952;2023-11-21T03:32:41;99967.03;;;10.49;100.00
4586;BME280;2305;50.118;8.952;2023-11-21T03:35:15;99967.25;;;10.46;100.00
4586;BME280;2305;50.118;8.952;2023-11-21T03:37:44;99970.88;;;10.45;100.00
4586;BME280;2305;50.118;8.952;2023-11-21T03:40:12;99982.81;;;10.49;100.00
4586;BME280;2305;50.118;8.952;2023-11-21T03:42:40;99974.34;;;10.46;100.00
4586;BME280;2305;50.118;8.952;2023-11-21T03:45:09;99972.81;;;10.43;100.00
4586;BME280;2305;50.118;8.952;2023-11-21T03:47:41;99969.50;;;10.41;100.00
4586;BME280;2305;50.118;8.952;2023-11-21T03:50:10;99973.06;;;10.40;100.00
4586;BME280;2305;50.118;8.952;2023-11-21T03:52:38;99982.50;;;10.43;100.00
4586;BME280;2305;50.118;8.952;2023-11-21T03:55:07;99978.91;;;10.44;100.00
4586;BME280;2305;50.118;8.952;2023-11-21T03:57:41;99980.59;;;10.45;100.00
4586;BME280;2305;50.118;8.952;2023-11-21T04:00:10;99985.97;;;10.43;100.00
4586;BME280;2305;50.118;8.952;2023-11-21T04:02:40;99986.22;;;10.40;100.00
4586;BME280;2305;50.118;8.952;2023-11-21T04:05:09;99989.00;;;10.39;100.00
4586;BME280;2305;50.118;8.952;2023-11-21T04:07:37;99994.84;;;10.42;100.00
4586;BME280;2305;50.118;8.952;2023-11-21T04:10:07;99995.66;;;10.43;100.00
4586;BME280;2305;50.118;8.952;2023-11-21T04:12:36;99995.81;;;10.41;100.00
4586;BME280;2305;50.118;8.952;2023-11-21T04:15:05;99990.22;;;10.35;100.00
4586;BME280;2305;50.118;8.952;2023-11-21T04:17:35;100004.38;;;10.34;100.00
4586;BME280;2305;50.118;8.952;2023-11-21T04:20:07;100005.06;;;10.36;100.00
4586;BME280;2305;50.118;8.952;2023-11-21T04:22:37;100008.41;;;10.38;100.00
4586;BME280;2305;50.118;8.952;2023-11-21T04:25:08;100017.25;;;10.37;100.00
4586;BME280;2305;50.118;8.952;2023-11-21T04:27:37;100003.84;;;10.40;100.00
4586;BME280;2305;50.118;8.952;2023-11-21T04:30:06;100009.00;;;10.41;100.00
4586;BME280;2305;50.118;8.952;2023-11-21T04:32:36;100010.66;;;10.42;100.00
4586;BME280;2305;50.118;8.952;2023-11-21T04:35:08;100009.56;;;10.45;100.00
4586;BME280;2305;50.118;8.952;2023-11-21T04:37:36;100016.63;;;10.44;100.00
4586;BME280;2305;50.118;8.952;2023-11-21T04:40:05;100016.75;;;10.43;100.00
4586;BME280;2305;50.118;8.952;2023-11-21T04:42:35;100014.94;;;10.43;100.00
4586;BME280;2305;50.118;8.952;2023-11-21T04:45:04;100014.94;;;10.43;100.00
4586;BME280;2305;50.118;8.952;2023-11-21T04:47:35;100025.63;;;10.42;100.00
4586;BME280;2305;50.118;8.952;2023-11-21T04:50:07;100021.03;;;10.44;100.00
4586;BME280;2305;50.118;8.952;2023-11-21T04:52:36;100032.53;;;10.43;100.00
4586;BME280;2305;50.118;8.952;2023-11-21T04:55:04;100029.09;;;10.42;100.00
4586;BME280;2305;50.118;8.952;2023-11-21T04:57:33;100029.78;;;10.44;100.00
4586;BME280;2305;50.118;8.952;2023-11-21T05:00:05;100033.38;;;10.43;100.00
4586;BME280;2305;50.118;8.952;2023-11-21T05:02:33;100046.44;;;10.45;100.00
4586;BME280;2305;50.118;8.952;2023-11-21T05:05:02;100051.13;;;10.41;100.00
4586;BME280;2305;50.118;8.952;2023-11-21T05:07:34;100057.09;;;10.43;100.00
4586;BME280;2305;50.118;8.952;2023-11-21T05:10:04;100054.47;;;10.43;100.00
4586;BME280;2305;50.118;8.952;2023-11-21T05:12:35;100055.28;;;10.44;100.00
4586;BME280;2305;50.118;8.952;2023-11-21T05:15:07;100065.69;;;10.45;100.00
4586;BME280;2305;50.118;8.952;2023-11-21T05:17:37;100060.31;;;10.47;100.00
4586;BME280;2305;50.118;8.952;2023-11-21T05:20:10;100063.75;;;10.47;100.00
4586;BME280;2305;50.118;8.952;2023-11-21T05:22:40;100059.34;;;10.48;100.00
4586;BME280;2305;50.118;8.952;2023-11-21T05:25:09;100064.47;;;10.49;100.00
4586;BME280;2305;50.118;8.952;2023-11-21T05:27:38;100075.84;;;10.50;100.00
4586;BME280;2305;50.118;8.952;2023-11-21T05:30:06;100063.63;;;10.49;100.00
4586;BME280;2305;50.118;8.952;2023-11-21T05:32:37;100068.78;;;10.50;100.00
4586;BME280;2305;50.118;8.952;2023-11-21T05:35:05;100074.75;;;10.52;100.00
4586;BME280;2305;50.118;8.952;2023-11-21T05:37:36;100076.41;;;10.53;100.00
4586;BME280;2305;50.118;8.952;2023-11-21T05:40:08;100085.28;;;10.52;100.00
4586;BME280;2305;50.118;8.952;2023-11-21T05:42:36;100081.69;;;10.53;100.00
4586;BME280;2305;50.118;8.952;2023-11-21T05:45:06;100091.41;;;10.53;100.00
4586;BME280;2305;50.118;8.952;2023-11-21T05:47:37;100089.34;;;10.56;100.00
4586;BME280;2305;50.118;8.952;2023-11-21T05:50:07;100091.00;;;10.57;100.00
4586;BME280;2305;50.118;8.952;2023-11-21T05:52:38;100086.44;;;10.59;100.00
4586;BME280;2305;50.118;8.952;2023-11-21T05:55:08;100084.63;;;10.60;100.00
4586;BME280;2305;50.118;8.952;2023-11-21T05:57:38;100094.31;;;10.59;100.00
4586;BME280;2305;50.118;8.952;2023-11-21T06:00:10;100098.63;;;10.60;100.00
4586;BME280;2305;50.118;8.952;2023-11-21T06:02:42;100101.16;;;10.62;100.00
4586;BME280;2305;50.118;8.952;2023-11-21T06:05:13;100102.94;;;10.61;100.00
4586;BME280;2305;50.118;8.952;2023-11-21T06:07:42;100105.72;;;10.60;100.00
4586;BME280;2305;50.118;8.952;2023-11-21T06:10:13;100097.09;;;10.58;100.00
4586;BME280;2305;50.118;8.952;2023-11-21T06:12:41;100105.97;;;10.57;100.00
4586;BME280;2305;50.118;8.952;2023-11-21T06:15:11;100112.78;;;10.59;100.00
4586;BME280;2305;50.118;8.952;2023-11-21T06:17:40;100117.34;;;10.57;100.00
4586;BME280;2305;50.118;8.952;2023-11-21T06:20:10;100126.91;;;10.58;100.00
4586;BME280;2305;50.118;8.952;2023-11-21T06:22:42;100126.78;;;10.60;100.00
4586;BME280;2305;50.118;8.952;2023-11-21T06:25:12;100129.44;;;10.60;100.00
4586;BME280;2305;50.118;8.952;2023-11-21T06:27:44;100127.59;;;10.60;100.00
4586;BME280;2305;50.118;8.952;2023-11-21T06:30:12;100136.47;;;10.59;100.00
4586;BME280;2305;50.118;8.952;2023-11-21T06:32:42;100140.09;;;10.58;100.00
4586;BME280;2305;50.118;8.952;2023-11-21T06:35:15;100146.06;;;10.60;100.00
4586;BME280;2305;50.118;8.952;2023-11-21T06:37:44;100151.47;;;10.59;100.00
4586;BME280;2305;50.118;8.952;2023-11-21T06:40:16;100147.03;;;10.59;100.00
4586;BME280;2305;50.118;8.952;2023-11-21T06:42:47;100146.91;;;10.61;100.00
4586;BME280;2305;50.118;8.952;2023-11-21T06:45:17;100158.41;;;10.60;100.00
4586;BME280;2305;50.118;8.952;2023-11-21T06:47:45;100161.84;;;10.60;100.00
4586;BME280;2305;50.118;8.952;2023-11-21T06:50:13;100165.47;;;10.59;100.00
4586;BME280;2305;50.118;8.952;2023-11-21T06:52:42;100169.91;;;10.59;100.00
4586;BME280;2305;50.118;8.952;2023-11-21T06:55:11;100179.47;;;10.60;100.00
4586;BME280;2305;50.118;8.952;2023-11-21T06:57:39;100184.59;;;10.61;100.00
4586;BME280;2305;50.118;8.952;2023-11-21T07:00:09;100185.34;;;10.63;100.00
4586;BME280;2305;50.118;8.952;2023-11-21T07:02:38;100193.09;;;10.65;100.00
4586;BME280;2305;50.118;8.952;2023-11-21T07:05:06;100195.72;;;10.65;100.00
4586;BME280;2305;50.118;8.952;2023-11-21T07:07:35;100196.44;;;10.67;100.00
4586;BME280;2305;50.118;8.952;2023-11-21T07:10:05;100198.81;;;10.70;100.00
4586;BME280;2305;50.118;8.952;2023-11-21T07:12:33;100208.25;;;10.72;100.00
4586;BME280;2305;50.118;8.952;2023-11-21T07:15:02;100217.84;;;10.73;100.00
4586;BME280;2305;50.118;8.952;2023-11-21T07:17:35;100216.28;;;10.71;100.00
4586;BME280;2305;50.118;8.952;2023-11-21T07:20:08;100222.53;;;10.70;100.00
4586;BME280;2305;50.118;8.952;2023-11-21T07:22:37;100219.66;;;10.73;100.00
4586;BME280;2305;50.118;8.952;2023-11-21T07:25:08;100217.84;;;10.73;100.00
4586;BME280;2305;50.118;8.952;2023-11-21T07:27:37;100219.50;;;10.74;100.00
4586;BME280;2305;50.118;8.952;2023-11-21T07:30:06;100225.50;;;10.76;100.00
4586;BME280;2305;50.118;8.952;2023-11-21T07:32:37;100223.56;;;10.78;100.00
4586;BME280;2305;50.118;8.952;2023-11-21T07:35:08;100231.59;;;10.77;100.00
4586;BME280;2305;50.118;8.952;2023-11-21T07:37:36;100238.53;;;10.78;100.00
4586;BME280;2305;50.118;8.952;2023-11-21T07:40:05;100241.91;;;10.80;100.00
4586;BME280;2305;50.118;8.952;2023-11-21T07:42:37;100240.94;;;10.81;100.00
4586;BME280;2305;50.118;8.952;2023-11-21T07:45:06;100243.28;;;10.84;100.00
4586;BME280;2305;50.118;8.952;2023-11-21T07:47:35;100247.88;;;10.82;100.00
4586;BME280;2305;50.118;8.952;2023-11-21T07:50:05;100245.94;;;10.84;100.00
4586;BME280;2305;50.118;8.952;2023-11-21T07:52:35;100244.00;;;10.86;100.00
4586;BME280;2305;50.118;8.952;2023-11-21T07:55:03;100255.13;;;10.89;100.00
4586;BME280;2305;50.118;8.952;2023-11-21T07:57:31;100252.09;;;10.94;100.00
4586;BME280;2305;50.118;8.952;2023-11-21T08:00:00;100245.88;;;10.95;100.00
4586;BME280;2305;50.118;8.952;2023-11-21T08:02:38;100254.38;;;10.98;100.00
4586;BME280;2305;50.118;8.952;2023-11-21T08:05:11;100255.06;;;11.00;100.00
4586;BME280;2305;50.118;8.952;2023-11-21T08:07:50;100260.22;;;11.02;100.00
4586;BME280;2305;50.118;8.952;2023-11-21T08:10:19;100257.44;;;11.03;100.00
4586;BME280;2305;50.118;8.952;2023-11-21T08:12:49;100255.53;;;11.05;100.00
4586;BME280;2305;50.118;8.952;2023-11-21T08:15:18;100255.25;;;11.08;100.00
4586;BME280;2305;50.118;8.952;2023-11-21T08:17:46;100260.41;;;11.10;100.00
4586;BME280;2305;50.118;8.952;2023-11-21T08:20:19;100267.22;;;11.12;100.00
4586;BME280;2305;50.118;8.952;2023-11-21T08:22:47;100263.47;;;11.15;100.00
4586;BME280;2305;50.118;8.952;2023-11-21T08:25:15;100268.38;;;11.19;100.00
4586;BME280;2305;50.118;8.952;2023-11-21T08:27:46;100271.72;;;11.21;100.00
4586;BME280;2305;50.118;8.952;2023-11-21T08:30:14;100273.94;;;11.26;100.00
4586;BME280;2305;50.118;8.952;2023-11-21T08:32:46;100277.84;;;11.31;100.00
4586;BME280;2305;50.118;8.952;2023-11-21T08:35:14;100276.78;;;11.34;100.00
4586;BME280;2305;50.118;8.952;2023-11-21T08:37:44;100269.31;;;11.39;100.00
4586;BME280;2305;50.118;8.952;2023-11-21T08:40:12;100284.47;;;11.46;100.00
4586;BME280;2305;50.118;8.952;2023-11-21T08:42:44;100286.56;;;11.52;100.00
4586;BME280;2305;50.118;8.952;2023-11-21T08:45:13;100297.22;;;11.62;100.00
4586;BME280;2305;50.118;8.952;2023-11-21T08:47:41;100298.75;;;11.64;100.00
4586;BME280;2305;50.118;8.952;2023-11-21T08:50:11;100299.72;;;11.63;100.00
4586;BME280;2305;50.118;8.952;2023-11-21T08:52:40;100309.31;;;11.64;100.00
4586;BME280;2305;50.118;8.952;2023-11-21T08:55:10;100305.81;;;11.64;100.00
4586;BME280;2305;50.118;8.952;2023-11-21T08:57:40;100311.16;;;11.73;100.00
4586;BME280;2305;50.118;8.952;2023-11-21T09:00:10;100318.78;;;11.67;100.00
4586;BME280;2305;50.118;8.952;2023-11-21T09:02:41;100325.56;;;11.60;100.00
4586;BME280;2305;50.118;8.952;2023-11-21T09:05:10;100326.16;;;11.52;100.00
4586;BME280;2305;50.118;8.952;2023-11-21T09:07:41;100332.22;;;11.43;100.00
4586;BME280;2305;50.118;8.952;2023-11-21T09:10:13;100337.63;;;11.42;100.00
4586;BME280;2305;50.118;8.952;2023-11-21T09:12:41;100340.13;;;11.43;100.00
4586;BME280;2305;50.118;8.952;2023-11-21T09:15:12;100347.66;;;11.48;100.00
4586;BME280;2305;50.118;8.952;2023-11-21T09:17:42;100350.28;;;11.48;100.00
4586;BME280;2305;50.118;8.952;2023-11-21T09:20:11;100349.91;;;11.52;100.00
4586;BME280;2305;50.118;8.952;2023-11-21T09:22:41;100353.41;;;11.53;100.00
4586;BME280;2305;50.118;8.952;2023-11-21T09:25:13;100346.44;;;11.52;100.00
4586;BME280;2305;50.118;8.952;2023-11-21T09:27:41;100354.22;;;11.53;100.00
4586;BME280;2305;50.118;8.952;2023-11-21T09:30:12;100357.13;;;11.50;100.00
4586;BME280;2305;50.118;8.952;2023-11-21T09:32:41;100364.91;;;11.52;100.00
4586;BME280;2305;50.118;8.952;2023-11-21T09:35:12;100369.06;;;11.54;100.00
4586;BME280;2305;50.118;8.952;2023-11-21T09:37:41;100375.53;;;11.61;100.00
4586;BME280;2305;50.118;8.952;2023-11-21T09:40:20;100370.53;;;11.58;100.00
4586;BME280;2305;50.118;8.952;2023-11-21T09:42:54;100366.59;;;11.53;100.00
4586;BME280;2305;50.118;8.952;2023-11-21T09:45:26;100368.31;;;11.43;100.00
4586;BME280;2305;50.118;8.952;2023-11-21T09:47:55;100364.50;;;11.36;100.00
4586;BME280;2305;50.118;8.952;2023-11-21T09:50:24;100367.94;;;11.27;100.00
4586;BME280;2305;50.118;8.952;2023-11-21T09:52:58;100373.59;;;11.22;100.00
4586;BME280;2305;50.118;8.952;2023-11-21T09:55:34;100375.25;;;11.23;100.00
4586;BME280;2305;50.118;8.952;2023-11-21T09:58:04;100370.63;;;11.36;100.00
4586;BME280;2305;50.118;8.952;2023-11-21T10:00:34;100377.38;;;11.50;100.00
4586;BME280;2305;50.118;8.952;2023-11-21T10:03:02;100374.59;;;11.62;100.00
4586;BME280;2305;50.118;8.952;2023-11-21T10:05:31;100384.38;;;11.71;100.00
4586;BME280;2305;50.118;8.952;2023-11-21T10:08:01;100385.25;;;11.81;100.00
4586;BME280;2305;50.118;8.952;2023-11-21T10:10:32;100375.13;;;11.86;100.00
4586;BME280;2305;50.118;8.952;2023-11-21T10:13:02;100372.50;;;11.86;100.00
4586;BME280;2305;50.118;8.952;2023-11-21T10:15:33;100379.19;;;11.90;100.00
4586;BME280;2305;50.118;8.952;2023-11-21T10:18:03;100376.97;;;11.95;100.00
4586;BME280;2305;50.118;8.952;2023-11-21T10:20:33;100378.41;;;11.99;100.00
4586;BME280;2305;50.118;8.952;2023-11-21T10:23:01;100385.34;;;12.00;100.00
4586;BME280;2305;50.118;8.952;2023-11-21T10:25:34;100392.75;;;12.06;100.00
4586;BME280;2305;50.118;8.952;2023-11-21T10:28:04;100386.78;;;12.14;100.00
4586;BME280;2305;50.118;8.952;2023-11-21T10:30:34;100389.75;;;12.20;100.00
4586;BME280;2305;50.118;8.952;2023-11-21T10:33:04;100392.25;;;12.31;100.00
4586;BME280;2305;50.118;8.952;2023-11-21T10:35:42;100400.34;;;12.39;100.00
4586;BME280;2305;50.118;8.952;2023-11-21T10:38:13;100401.75;;;12.43;100.00
4586;BME280;2305;50.118;8.952;2023-11-21T10:40:44;100395.06;;;12.39;100.00
4586;BME280;2305;50.118;8.952;2023-11-21T10:43:14;100408.72;;;12.44;100.00
4586;BME280;2305;50.118;8.952;2023-11-21T10:45:43;100403.88;;;12.49;100.00
4586;BME280;2305;50.118;8.952;2023-11-21T10:48:13;100400.16;;;12.61;100.00
4586;BME280;2305;50.118;8.952;2023-11-21T10:50:46;100399.75;;;12.66;100.00
4586;BME280;2305;50.118;8.952;2023-11-21T10:53:14;100400.31;;;12.69;100.00
4586;BME280;2305;50.118;8.952;2023-11-21T10:55:47;100398.50;;;12.79;100.00
4586;BME280;2305;50.118;8.952;2023-11-21T10:58:16;100398.94;;;12.94;100.00
4586;BME280;2305;50.118;8.952;2023-11-21T11:00:44;100389.91;;;13.06;100.00
4586;BME280;2305;50.118;8.952;2023-11-21T11:03:15;100394.25;;;13.16;100.00
4586;BME280;2305;50.118;8.952;2023-11-21T11:05:47;100394.09;;;13.27;100.00
4586;BME280;2305;50.118;8.952;2023-11-21T11:08:21;100398.69;;;13.44;100.00
4586;BME280;2305;50.118;8.952;2023-11-21T11:10:56;100404.50;;;13.67;100.00
4586;BME280;2305;50.118;8.952;2023-11-21T11:13:25;100389.81;;;13.91;100.00
4586;BME280;2305;50.118;8.952;2023-11-21T11:15:58;100399.19;;;14.12;100.00
4586;BME280;2305;50.118;8.952;2023-11-21T11:18:29;100400.31;;;14.19;100.00
4586;BME280;2305;50.118;8.952;2023-11-21T11:21:03;100397.06;;;14.25;100.00
4586;BME280;2305;50.118;8.952;2023-11-21T11:23:46;100392.75;;;14.24;100.00
4586;BME280;2305;50.118;8.952;2023-11-21T11:26:32;100397.66;;;14.19;100.00
4586;BME280;2305;50.118;8.952;2023-11-21T11:29:12;100396.53;;;14.12;100.00
4586;BME280;2305;50.118;8.952;2023-11-21T11:31:52;100393.34;;;14.09;100.00
4586;BME280;2305;50.118;8.952;2023-11-21T11:34:28;100394.78;;;14.03;100.00
4586;BME280;2305;50.118;8.952;2023-11-21T11:37:00;100394.91;;;14.02;100.00
4586;BME280;2305;50.118;8.952;2023-11-21T11:39:31;100394.09;;;14.01;100.00
4586;BME280;2305;50.118;8.952;2023-11-21T11:42:08;100396.19;;;13.98;100.00
4586;BME280;2305;50.118;8.952;2023-11-21T11:44:52;100393.53;;;13.98;100.00
4586;BME280;2305;50.118;8.952;2023-11-21T11:47:23;100391.44;;;14.01;100.00
4586;BME280;2305;50.118;8.952;2023-11-21T11:49:57;100394.50;;;14.06;100.00
4586;BME280;2305;50.118;8.952;2023-11-21T11:52:39;100394.50;;;14.06;100.00
4586;BME280;2305;50.118;8.952;2023-11-21T11:55:10;100395.06;;;14.00;100.00
4586;BME280;2305;50.118;8.952;2023-11-21T11:57:42;100400.94;;;13.94;100.00
4586;BME280;2305;50.118;8.952;2023-11-21T12:00:16;100394.66;;;13.95;100.00
4586;BME280;2305;50.118;8.952;2023-11-21T12:02:47;100396.22;;;13.88;100.00
4586;BME280;2305;50.118;8.952;2023-11-21T12:05:16;100395.66;;;13.85;100.00
4586;BME280;2305;50.118;8.952;2023-11-21T12:07:48;100397.22;;;13.78;100.00
4586;BME280;2305;50.118;8.952;2023-11-21T12:10:17;100398.47;;;13.74;100.00
4586;BME280;2305;50.118;8.952;2023-11-21T12:12:48;100407.69;;;13.70;100.00
4586;BME280;2305;50.118;8.952;2023-11-21T12:15:16;100407.41;;;13.73;100.00
4586;BME280;2305;50.118;8.952;2023-11-21T12:17:46;100413.69;;;13.72;100.00
4586;BME280;2305;50.118;8.952;2023-11-21T12:20:18;100417.19;;;13.73;100.00
4586;BME280;2305;50.118;8.952;2023-11-21T12:22:47;100414.66;;;13.71;100.00
4586;BME280;2305;50.118;8.952;2023-11-21T12:25:17;100419.53;;;13.66;100.00
4586;BME280;2305;50.118;8.952;2023-11-21T12:27:48;100422.50;;;13.63;100.00
4586;BME280;2305;50.118;8.952;2023-11-21T12:30:18;100427.22;;;13.60;100.00
4586;BME280;2305;50.118;8.952;2023-11-21T12:32:49;100430.56;;;13.62;100.00
4586;BME280;2305;50.118;8.952;2023-11-21T12:35:18;100430.00;;;13.49;100.00
4586;BME280;2305;50.118;8.952;2023-11-21T12:37:48;100440.47;;;13.50;100.00
4586;BME280;2305;50.118;8.952;2023-11-21T12:40:17;100432.41;;;13.42;100.00
4586;BME280;2305;50.118;8.952;2023-11-21T12:42:48;100440.47;;;13.41;100.00
4586;BME280;2305;50.118;8.952;2023-11-21T12:45:21;100432.69;;;13.39;100.00
4586;BME280;2305;50.118;8.952;2023-11-21T12:47:50;100435.19;;;13.31;100.00
4586;BME280;2305;50.118;8.952;2023-11-21T12:50:19;100440.63;;;13.30;100.00
4586;BME280;2305;50.118;8.952;2023-11-21T12:52:51;100437.00;;;13.21;100.00
4586;BME280;2305;50.118;8.952;2023-11-21T12:55:21;100448.81;;;13.17;100.00
4586;BME280;2305;50.118;8.952;2023-11-21T12:57:52;100453.00;;;13.20;100.00
4586;BME280;2305;50.118;8.952;2023-11-21T13:00:28;100450.34;;;13.10;100.00
4586;BME280;2305;50.118;8.952;2023-11-21T13:02:59;100454.38;;;13.05;100.00
4586;BME280;2305;50.118;8.952;2023-11-21T13:05:29;100459.56;;;13.06;100.00
4586;BME280;2305;50.118;8.952;2023-11-21T13:07:59;100461.75;;;13.01;100.00
4586;BME280;2305;50.118;8.952;2023-11-21T13:10:31;100458.84;;;12.95;100.00
4586;BME280;2305;50.118;8.952;2023-11-21T13:13:05;100462.69;;;12.91;100.00
4586;BME280;2305;50.118;8.952;2023-11-21T13:15:39;100460.03;;;12.91;100.00
4586;BME280;2305;50.118;8.952;2023-11-21T13:18:08;100464.75;;;12.87;100.00